Terminal Aerodrome Forecast
Issued by NWS Tuscon, AZ

Home | Current Version | Previous Version | Text Only | Print | Product List | Glossary On
Versions: 1 2 3 4 5 6 7 8 9 10 11 12
463
FTUS45 KTWC 080521
TAFDUG
TAF
KDUG 080521Z 0806/0906 VRB04KT P6SM BKN250
     FM081700 08009KT P6SM SCT250
     FM090200 03005KT P6SM SKC=

USA.gov is the U.S. government's official web portal to all federal, state and local government web resources and services.